createdAt,value
2018-05-23T01:02:15.052Z,999.90
2018-05-23T01:04:47.854Z,999.90
2018-05-23T01:07:20.716Z,999.90
2018-05-23T01:09:53.475Z,999.90
2018-05-23T01:12:26.170Z,963.80
2018-05-23T01:14:59.292Z,884.90
2018-05-23T01:17:31.575Z,948.10
2018-05-23T01:20:03.609Z,994.37
2018-05-23T01:22:36.155Z,986.53
2018-05-23T01:25:08.531Z,954.50
2018-05-23T01:27:40.537Z,420.47
2018-05-23T01:30:12.814Z,166.40
2018-05-23T01:32:44.857Z,152.00
2018-05-23T01:35:16.692Z,143.63
2018-05-23T01:37:49.211Z,162.97
2018-05-23T01:40:22.660Z,194.23
2018-05-23T01:42:55.151Z,134.30
2018-05-23T01:45:29.973Z,190.50
2018-05-23T01:48:03.471Z,203.07
2018-05-23T01:50:36.054Z,212.80
2018-05-23T01:53:09.160Z,247.47
2018-05-23T01:55:44.854Z,284.40
2018-05-23T01:58:17.978Z,303.17
2018-05-23T02:00:50.812Z,340.33
2018-05-23T02:03:23.051Z,449.43
2018-05-23T02:05:56.658Z,681.87
2018-05-23T02:08:30.814Z,788.63
2018-05-23T02:11:05.498Z,832.30
2018-05-23T02:13:37.475Z,942.17
2018-05-23T02:16:10.232Z,984.63
2018-05-23T02:18:42.313Z,965.93
2018-05-23T02:21:14.916Z,957.97
2018-05-23T02:23:48.913Z,973.77
2018-05-23T02:26:23.650Z,971.33
2018-05-23T02:28:56.634Z,921.43
2018-05-23T02:31:29.574Z,949.63
2018-05-23T02:34:01.919Z,958.07
2018-05-23T02:36:35.952Z,940.13
2018-05-23T02:39:10.153Z,947.53
2018-05-23T02:41:42.753Z,769.97
2018-05-23T02:44:14.796Z,587.33
2018-05-23T02:46:46.955Z,739.90
2018-05-23T02:49:19.153Z,355.17
2018-05-23T02:51:51.998Z,307.80
2018-05-23T02:54:24.112Z,517.90
2018-05-23T02:56:56.171Z,371.90
2018-05-23T02:59:28.873Z,416.87
2018-05-23T03:02:02.200Z,399.83
2018-05-23T03:04:34.211Z,416.93
2018-05-23T03:07:07.193Z,583.20
2018-05-23T03:09:40.671Z,694.83
2018-05-23T03:12:14.648Z,585.30
2018-05-23T03:14:48.195Z,634.43
2018-05-23T03:17:20.969Z,580.13
2018-05-23T03:19:53.453Z,683.50
2018-05-23T03:22:29.252Z,953.10
2018-05-23T03:25:02.292Z,810.60
2018-05-23T03:27:35.471Z,860.27
2018-05-23T03:30:10.015Z,776.00
2018-05-23T03:32:42.735Z,803.67
2018-05-23T03:35:18.174Z,780.60
2018-05-23T03:37:52.217Z,741.43
2018-05-23T03:40:24.577Z,644.13
2018-05-23T03:42:56.735Z,695.37
2018-05-23T03:45:31.702Z,559.37
2018-05-23T03:48:04.260Z,671.33
2018-05-23T03:50:36.399Z,652.60
2018-05-23T03:53:09.132Z,604.07
2018-05-23T03:55:43.020Z,587.13
2018-05-23T03:58:17.417Z,613.43
2018-05-23T04:04:06.293Z,608.50
2018-05-23T04:06:55.688Z,550.73
2018-05-23T04:09:28.276Z,491.77
2018-05-23T04:12:04.301Z,394.07
2018-05-23T04:14:41.455Z,406.83
2018-05-23T04:17:14.456Z,382.43
2018-05-23T04:19:46.778Z,396.87
2018-05-23T04:22:19.953Z,391.93
2018-05-23T04:24:53.262Z,361.97
2018-05-23T04:27:26.157Z,348.00
2018-05-23T04:30:01.930Z,336.27
2018-05-23T04:32:35.793Z,352.53
2018-05-23T04:35:08.141Z,371.83
2018-05-23T04:37:41.438Z,375.93
2018-05-23T04:40:15.712Z,352.20
2018-05-23T04:42:48.630Z,357.93
2018-05-23T04:45:21.117Z,370.00
2018-05-23T04:47:55.873Z,393.33
2018-05-23T04:50:29.038Z,379.60
2018-05-23T04:53:02.637Z,356.33
2018-05-23T04:55:34.894Z,341.43
2018-05-23T04:58:08.595Z,331.50
2018-05-23T05:00:41.336Z,350.23
2018-05-23T05:03:14.358Z,330.07
2018-05-23T05:05:49.903Z,404.17
2018-05-23T05:08:25.176Z,337.73
2018-05-23T05:10:57.677Z,339.17
2018-05-23T05:13:33.354Z,356.27
2018-05-23T05:16:08.990Z,282.40
2018-05-23T05:18:43.655Z,319.57
2018-05-23T05:21:18.130Z,311.47
2018-05-23T05:23:50.412Z,380.20
2018-05-23T05:26:28.001Z,385.73
2018-05-23T05:29:02.692Z,278.67
2018-05-23T05:31:36.729Z,408.77
2018-05-23T05:34:10.295Z,318.37
2018-05-23T05:36:44.454Z,373.73
2018-05-23T05:39:19.873Z,319.60
2018-05-23T05:41:55.372Z,282.50
2018-05-23T05:44:30.297Z,325.83
2018-05-23T05:47:02.943Z,306.80
2018-05-23T05:49:37.042Z,294.33
2018-05-23T05:52:11.396Z,274.50
2018-05-23T05:54:46.998Z,528.73
2018-05-23T05:57:20.572Z,604.93
2018-05-23T05:59:55.155Z,982.23
2018-05-23T06:02:28.072Z,999.90
2018-05-23T06:05:02.734Z,999.90
2018-05-23T06:07:37.594Z,999.90
2018-05-23T06:10:13.115Z,999.90
2018-05-23T06:12:48.697Z,999.90
2018-05-23T06:15:20.853Z,999.90
2018-05-23T06:17:55.454Z,999.90
2018-05-23T06:20:28.680Z,999.90
2018-05-23T06:23:02.582Z,999.90
2018-05-23T06:25:39.672Z,999.90
2018-05-23T06:28:12.317Z,999.90
2018-05-23T06:30:44.776Z,999.90
2018-05-23T06:33:18.533Z,999.90
2018-05-23T06:35:55.002Z,999.90
2018-05-23T06:38:28.676Z,999.90
2018-05-23T06:41:01.914Z,999.90
2018-05-23T06:43:34.338Z,999.90
2018-05-23T06:46:09.653Z,999.90
2018-05-23T06:48:43.497Z,999.90
2018-05-23T06:51:17.463Z,999.90
2018-05-23T06:53:50.798Z,999.90
2018-05-23T06:56:24.836Z,999.90
2018-05-23T06:58:58.418Z,701.67
2018-05-23T07:01:33.734Z,807.40
2018-05-23T07:04:07.738Z,999.90
2018-05-23T07:06:42.777Z,491.50
2018-05-23T07:09:17.418Z,249.17
2018-05-23T07:11:51.757Z,61.07
2018-05-23T07:14:24.600Z,61.07
2018-05-23T07:16:59.495Z,71.27
2018-05-23T07:19:35.856Z,75.80
2018-05-23T07:22:08.112Z,107.00
2018-05-23T07:24:43.540Z,157.40
2018-05-23T07:27:16.734Z,201.03
2018-05-23T07:29:54.551Z,125.33
2018-05-23T07:32:27.177Z,112.33
2018-05-23T07:34:59.391Z,81.30
2018-05-23T07:37:32.213Z,93.67
2018-05-23T07:40:07.428Z,97.87
2018-05-23T07:42:42.712Z,100.67
2018-05-23T07:45:17.941Z,108.73
2018-05-23T07:47:51.716Z,60.37
2018-05-23T07:50:27.218Z,77.17
2018-05-23T07:53:01.257Z,66.47
2018-05-23T07:55:35.216Z,82.40
2018-05-23T07:58:10.692Z,106.60
2018-05-23T08:00:43.974Z,157.03
2018-05-23T08:03:19.735Z,382.10
2018-05-23T08:05:53.357Z,243.77
2018-05-23T08:08:26.938Z,263.30
2018-05-23T08:11:01.783Z,253.83
2018-05-23T08:13:35.994Z,206.27
2018-05-23T08:16:09.359Z,229.73
2018-05-23T08:18:43.542Z,199.10
2018-05-23T08:21:16.474Z,168.67
2018-05-23T08:23:51.638Z,238.23
2018-05-23T08:26:25.318Z,510.03
2018-05-23T08:29:01.598Z,321.37
2018-05-23T08:31:34.933Z,241.87
2018-05-23T08:34:09.238Z,209.33
2018-05-23T08:36:45.716Z,194.63
2018-05-23T08:39:18.935Z,137.23
2018-05-23T08:41:53.436Z,105.43
2018-05-23T08:44:26.174Z,100.30
2018-05-23T08:47:04.300Z,184.43
2018-05-23T08:49:39.293Z,106.40
2018-05-23T08:52:12.333Z,94.63
2018-05-23T08:54:46.314Z,88.00
2018-05-23T08:57:26.415Z,109.43
2018-05-23T09:00:00.130Z,79.60
2018-05-23T09:02:35.619Z,77.43
2018-05-23T09:05:11.982Z,57.00
2018-05-23T09:07:45.834Z,158.60
2018-05-23T09:10:18.894Z,155.00
2018-05-23T09:12:51.823Z,108.60
2018-05-23T09:15:25.893Z,129.67
2018-05-23T09:17:58.917Z,132.90
2018-05-23T09:20:34.877Z,151.93
2018-05-23T09:23:10.456Z,123.10
2018-05-23T09:25:44.857Z,149.50
2018-05-23T09:28:25.392Z,118.13
2018-05-23T09:30:58.812Z,120.17
2018-05-23T09:33:31.512Z,113.47
2018-05-23T09:36:05.172Z,100.87
2018-05-23T09:38:42.174Z,117.00
2018-05-23T09:41:17.514Z,104.83
2018-05-23T09:43:53.110Z,105.30
2018-05-23T09:46:29.571Z,92.43
2018-05-23T09:49:06.613Z,123.30
2018-05-23T09:51:41.078Z,147.27
2018-05-23T09:54:14.453Z,133.87
2018-05-23T09:56:47.470Z,117.80
2018-05-23T09:59:21.038Z,131.00
2018-05-23T10:01:54.951Z,125.57
2018-05-23T10:04:26.796Z,104.20
2018-05-23T10:06:59.108Z,96.43
2018-05-23T10:09:31.932Z,111.53
2018-05-23T10:12:05.017Z,107.03
2018-05-23T10:14:39.497Z,120.27
2018-05-23T10:17:13.416Z,136.97
2018-05-23T10:19:47.336Z,110.63
2018-05-23T10:22:20.275Z,109.80
2018-05-23T10:24:58.280Z,140.65
2018-05-23T10:27:39.830Z,114.57
2018-05-23T10:30:13.693Z,105.40
2018-05-23T10:32:46.059Z,119.82
2018-05-23T10:35:24.896Z,95.22
2018-05-23T10:37:59.135Z,113.80
2018-05-23T10:40:36.375Z,145.77
2018-05-23T10:43:10.659Z,176.33
2018-05-23T10:45:42.955Z,118.33
2018-05-23T10:48:17.553Z,123.87
2018-05-23T10:50:55.512Z,230.27
2018-05-23T10:53:33.395Z,141.17
2018-05-23T10:56:06.755Z,226.37
2018-05-23T10:58:39.791Z,238.87
2018-05-23T11:01:14.335Z,200.23
2018-05-23T11:03:50.560Z,204.43
2018-05-23T11:06:24.236Z,145.53
2018-05-23T11:08:59.530Z,156.17
2018-05-23T11:11:31.693Z,145.40
2018-05-23T11:14:07.132Z,76.33
2018-05-23T11:16:41.237Z,110.60
2018-05-23T11:19:17.412Z,91.80
2018-05-23T11:21:50.351Z,104.17
2018-05-23T11:24:24.398Z,104.27
2018-05-23T11:26:56.537Z,147.43
2018-05-23T11:29:29.350Z,106.07
2018-05-23T11:32:02.415Z,160.93
2018-05-23T11:34:34.856Z,130.10
2018-05-23T11:37:08.415Z,107.50
2018-05-23T11:39:40.780Z,112.77
2018-05-23T11:42:16.155Z,162.23
2018-05-23T11:44:50.427Z,142.03
2018-05-23T11:47:23.497Z,120.10
2018-05-23T11:49:58.672Z,134.80
2018-05-23T11:52:30.403Z,134.63
2018-05-23T11:55:04.372Z,97.03
2018-05-23T11:57:40.598Z,81.65
2018-05-23T12:00:17.695Z,84.80
2018-05-23T12:02:51.369Z,107.68
2018-05-23T12:05:25.317Z,96.10
2018-05-23T12:08:01.174Z,93.97
2018-05-23T12:10:33.522Z,65.60
2018-05-23T12:13:06.713Z,52.50
2018-05-23T12:15:39.895Z,53.10
2018-05-23T12:18:12.600Z,44.70
2018-05-23T12:20:44.435Z,44.05
2018-05-23T12:23:22.232Z,41.10
2018-05-23T12:25:57.053Z,49.42
2018-05-23T12:28:32.576Z,55.35
2018-05-23T12:31:07.511Z,50.70
2018-05-23T12:33:39.836Z,48.58
2018-05-23T12:36:15.896Z,51.45
2018-05-23T12:38:50.531Z,60.22
2018-05-23T12:41:23.712Z,58.03
2018-05-23T12:43:56.740Z,45.75
2018-05-23T12:46:30.575Z,41.47
2018-05-23T12:49:10.261Z,40.20
2018-05-23T12:51:43.777Z,47.13
2018-05-23T12:54:18.036Z,59.28
2018-05-23T12:56:58.774Z,65.00
2018-05-23T12:59:31.836Z,54.47
2018-05-23T13:53:08.532Z,840.77
2018-05-23T13:55:45.995Z,999.90
2018-05-23T13:58:32.434Z,999.90
2018-05-23T14:01:11.158Z,828.87
2018-05-23T14:03:53.456Z,999.90
2018-05-23T14:06:38.892Z,999.90
2018-05-23T14:12:30.140Z,999.90
2018-05-23T14:15:09.495Z,999.90
2018-05-23T14:17:47.361Z,999.90
2018-05-23T14:20:38.838Z,999.90
2018-05-23T14:23:16.413Z,999.90
2018-05-23T14:25:55.058Z,999.90
2018-05-23T14:28:32.544Z,970.57
2018-05-23T14:34:05.655Z,844.47
2018-05-23T14:36:52.039Z,786.30
2018-05-23T14:39:46.024Z,771.57
2018-05-23T14:42:18.836Z,760.63
2018-05-23T14:44:52.391Z,758.57
2018-05-23T14:47:26.135Z,737.13
2018-05-23T14:49:58.891Z,870.50
2018-05-23T14:52:36.774Z,771.10
2018-05-23T14:55:11.711Z,867.60
2018-05-23T14:57:44.103Z,861.90
2018-05-23T15:00:17.921Z,746.27
2018-05-23T15:02:53.532Z,793.23
2018-05-23T15:05:26.456Z,758.43
2018-05-23T15:08:03.894Z,792.10
2018-05-23T15:10:37.457Z,902.07
2018-05-23T15:13:11.518Z,862.80
2018-05-23T15:15:45.825Z,830.83
2018-05-23T15:18:18.631Z,851.40
2018-05-23T15:20:56.409Z,744.90
2018-05-23T15:23:29.753Z,684.43
2018-05-23T15:26:05.183Z,663.30
2018-05-23T15:28:37.132Z,730.37
2018-05-23T15:31:16.079Z,813.87
2018-05-23T15:33:47.532Z,748.80
2018-05-23T15:36:31.378Z,695.40
2018-05-23T15:39:04.780Z,825.60
2018-05-23T15:41:41.474Z,719.90
2018-05-23T15:44:17.996Z,655.03
2018-05-23T15:46:52.258Z,693.20
2018-05-23T15:49:26.615Z,686.80
2018-05-23T15:52:00.075Z,680.40
2018-05-23T15:54:34.534Z,449.37
2018-05-23T15:57:10.452Z,425.90
2018-05-23T15:59:46.535Z,787.47
2018-05-23T16:02:21.174Z,813.47
2018-05-23T16:04:56.636Z,876.90
2018-05-23T16:07:30.131Z,558.27
2018-05-23T16:10:02.713Z,598.57
2018-05-23T16:12:35.656Z,767.97
2018-05-23T16:15:10.561Z,829.50
2018-05-23T16:17:50.114Z,927.87
2018-05-23T16:47:19.933Z,827.70
2018-05-23T16:49:53.697Z,697.03
2018-05-23T16:52:26.557Z,690.77
2018-05-23T16:55:00.731Z,852.43
2018-05-23T16:57:32.477Z,629.57
2018-05-23T17:00:06.662Z,704.70
2018-05-23T17:02:40.632Z,762.37
2018-05-23T17:05:13.494Z,618.00
2018-05-23T17:07:47.114Z,637.00
2018-05-23T17:10:20.950Z,753.73
2018-05-23T17:12:53.692Z,627.50
2018-05-23T17:15:27.498Z,936.17
2018-05-23T17:18:00.955Z,637.53
2018-05-23T17:20:33.779Z,891.40
2018-05-23T17:23:07.375Z,891.63
2018-05-23T17:25:42.779Z,591.00
2018-05-23T17:28:18.193Z,629.30
2018-05-23T17:30:51.489Z,904.97
2018-05-23T17:33:24.587Z,840.83
2018-05-23T17:35:58.198Z,783.63
2018-05-23T17:38:31.856Z,639.73
2018-05-23T17:41:04.632Z,707.33
2018-05-23T17:43:39.153Z,658.90
2018-05-23T17:46:11.853Z,638.10
2018-05-23T17:48:46.812Z,609.20
2018-05-23T17:51:19.271Z,493.20
2018-05-23T17:53:52.537Z,448.70
2018-05-23T17:56:26.340Z,466.27
2018-05-23T17:58:59.173Z,682.37
2018-05-23T18:01:32.438Z,466.77
2018-05-23T18:04:04.655Z,386.63
2018-05-23T18:06:43.674Z,999.90
2018-05-23T18:09:20.012Z,793.67
2018-05-23T18:11:53.023Z,522.87
2018-05-23T18:14:27.415Z,466.73
2018-05-23T18:17:02.411Z,528.50
2018-05-23T18:19:36.096Z,396.47
2018-05-23T18:22:09.699Z,413.07
2018-05-23T18:24:42.111Z,499.30
2018-05-23T18:27:16.056Z,396.47
2018-05-23T18:29:54.876Z,383.87
2018-05-23T18:32:28.739Z,385.93
2018-05-23T18:35:01.056Z,448.20
2018-05-23T18:37:33.735Z,448.43
2018-05-23T18:40:08.553Z,494.77
2018-05-23T18:42:41.870Z,544.17
2018-05-23T18:45:17.500Z,615.33
2018-05-23T18:47:50.680Z,594.67
2018-05-23T18:50:23.536Z,565.43
2018-05-23T18:52:56.596Z,482.90
2018-05-23T18:55:29.173Z,464.33
2018-05-23T18:58:01.738Z,331.70
2018-05-23T19:00:33.914Z,393.50
2018-05-23T20:17:43.271Z,575.73
2018-05-23T20:20:16.632Z,584.70
2018-05-23T20:22:50.396Z,621.67
2018-05-23T20:25:22.716Z,615.87
2018-05-23T20:27:55.212Z,622.43
2018-05-23T20:30:28.575Z,668.00
2018-05-23T20:33:01.595Z,698.13
2018-05-23T20:35:34.149Z,695.87
2018-05-23T20:38:06.579Z,628.60
2018-05-23T20:40:40.077Z,626.93
2018-05-23T20:43:12.537Z,601.83
2018-05-23T20:45:47.474Z,603.20
2018-05-23T20:48:22.690Z,599.67
2018-05-23T20:50:55.996Z,610.30
2018-05-23T20:53:28.160Z,600.43
2018-05-23T22:10:36.666Z,657.43
2018-05-23T22:35:11.323Z,642.80
2018-05-23T22:37:43.441Z,627.60
2018-05-23T22:40:16.123Z,542.03
2018-05-23T22:42:49.059Z,662.13
2018-05-23T22:45:22.341Z,630.87
2018-05-23T22:47:55.397Z,635.00
2018-05-23T22:50:28.385Z,612.47
2018-05-23T22:53:01.101Z,611.70
2018-05-23T22:55:34.402Z,626.13
2018-05-23T22:58:07.987Z,658.23
2018-05-23T23:00:40.843Z,602.63
2018-05-23T23:03:13.721Z,665.90
2018-05-23T23:05:46.961Z,629.63
2018-05-23T23:08:20.297Z,621.70
2018-05-23T23:10:54.283Z,588.80
2018-05-23T23:13:26.444Z,492.83
2018-05-23T23:15:58.763Z,592.90
2018-05-23T23:18:32.860Z,600.27
2018-05-23T23:21:05.601Z,531.80
2018-05-23T23:23:37.819Z,654.53
2018-05-23T23:26:10.862Z,661.33
2018-05-23T23:28:44.900Z,647.97
2018-05-23T23:31:17.522Z,619.17
2018-05-23T23:33:50.863Z,558.40
2018-05-23T23:36:23.761Z,617.43
2018-05-23T23:38:55.908Z,615.40
2018-05-23T23:41:28.969Z,519.77
2018-05-23T23:44:02.062Z,561.60
2018-05-23T23:46:34.963Z,572.00
2018-05-23T23:49:08.484Z,556.73
2018-05-23T23:51:40.867Z,551.60
2018-05-23T23:54:13.139Z,564.87
2018-05-23T23:56:45.464Z,558.17
2018-05-23T23:59:17.484Z,559.90
